sensor_id;sensor_type;location;lat;lon;timestamp;temperature;humidity
14687;DHT22;7431;49.440;11.084;2023-12-14T00:00:26;7.20;99.90
14687;DHT22;7431;49.440;11.084;2023-12-14T00:02:52;7.20;99.90
14687;DHT22;7431;49.440;11.084;2023-12-14T00:05:17;7.20;99.90
14687;DHT22;7431;49.440;11.084;2023-12-14T00:07:43;7.20;99.90
14687;DHT22;7431;49.440;11.084;2023-12-14T00:10:09;7.20;99.90
14687;DHT22;7431;49.440;11.084;2023-12-14T00:12:34;7.20;99.90
14687;DHT22;7431;49.440;11.084;2023-12-14T00:15:00;7.40;99.90
14687;DHT22;7431;49.440;11.084;2023-12-14T00:17:25;7.90;99.90
14687;DHT22;7431;49.440;11.084;2023-12-14T00:19:51;7.30;99.90
14687;DHT22;7431;49.440;11.084;2023-12-14T00:22:16;7.20;99.90
14687;DHT22;7431;49.440;11.084;2023-12-14T00:24:42;7.30;99.90
14687;DHT22;7431;49.440;11.084;2023-12-14T00:27:08;7.30;99.90
14687;DHT22;7431;49.440;11.084;2023-12-14T00:29:33;7.20;99.90
14687;DHT22;7431;49.440;11.084;2023-12-14T00:31:59;7.20;99.90
14687;DHT22;7431;49.440;11.084;2023-12-14T00:34:24;7.20;99.90
14687;DHT22;7431;49.440;11.084;2023-12-14T00:36:50;7.20;99.90
14687;DHT22;7431;49.440;11.084;2023-12-14T00:39:15;7.20;99.90
14687;DHT22;7431;49.440;11.084;2023-12-14T00:41:41;7.40;99.90
14687;DHT22;7431;49.440;11.084;2023-12-14T00:44:07;7.30;99.90
14687;DHT22;7431;49.440;11.084;2023-12-14T00:46:35;7.30;99.90
14687;DHT22;7431;49.440;11.084;2023-12-14T00:49:01;7.30;99.90
14687;DHT22;7431;49.440;11.084;2023-12-14T00:51:27;7.30;99.90
14687;DHT22;7431;49.440;11.084;2023-12-14T00:53:53;7.20;99.90
14687;DHT22;7431;49.440;11.084;2023-12-14T00:56:18;7.20;99.90
14687;DHT22;7431;49.440;11.084;2023-12-14T00:58:44;7.20;99.90
14687;DHT22;7431;49.440;11.084;2023-12-14T01:01:09;7.20;99.90
14687;DHT22;7431;49.440;11.084;2023-12-14T01:03:35;7.20;99.90
14687;DHT22;7431;49.440;11.084;2023-12-14T01:06:00;7.10;99.90
14687;DHT22;7431;49.440;11.084;2023-12-14T01:08:26;7.10;99.90
14687;DHT22;7431;49.440;11.084;2023-12-14T01:10:51;7.10;99.90
14687;DHT22;7431;49.440;11.084;2023-12-14T01:13:17;7.40;99.90
14687;DHT22;7431;49.440;11.084;2023-12-14T01:15:43;7.60;99.90
14687;DHT22;7431;49.440;11.084;2023-12-14T01:18:08;7.00;99.90
14687;DHT22;7431;49.440;11.084;2023-12-14T01:20:34;7.00;99.90
14687;DHT22;7431;49.440;11.084;2023-12-14T01:22:59;7.00;99.90
14687;DHT22;7431;49.440;11.084;2023-12-14T01:25:25;7.00;99.90
14687;DHT22;7431;49.440;11.084;2023-12-14T01:27:50;7.00;99.90
14687;DHT22;7431;49.440;11.084;2023-12-14T01:30:16;7.00;99.90
14687;DHT22;7431;49.440;11.084;2023-12-14T01:32:41;6.90;99.90
14687;DHT22;7431;49.440;11.084;2023-12-14T01:35:07;6.90;99.90
14687;DHT22;7431;49.440;11.084;2023-12-14T01:37:33;6.90;99.90
14687;DHT22;7431;49.440;11.084;2023-12-14T01:39:58;6.90;99.90
14687;DHT22;7431;49.440;11.084;2023-12-14T01:42:24;6.80;99.90
14687;DHT22;7431;49.440;11.084;2023-12-14T01:44:49;6.80;99.90
14687;DHT22;7431;49.440;11.084;2023-12-14T01:47:15;6.80;99.90
14687;DHT22;7431;49.440;11.084;2023-12-14T01:49:40;6.80;99.90
14687;DHT22;7431;49.440;11.084;2023-12-14T01:52:07;6.80;99.90
14687;DHT22;7431;49.440;11.084;2023-12-14T01:54:33;6.80;99.90
14687;DHT22;7431;49.440;11.084;2023-12-14T01:56:59;6.80;99.90
14687;DHT22;7431;49.440;11.084;2023-12-14T01:59:24;6.80;99.90
14687;DHT22;7431;49.440;11.084;2023-12-14T02:01:54;6.80;99.90
14687;DHT22;7431;49.440;11.084;2023-12-14T02:04:23;6.90;99.90
14687;DHT22;7431;49.440;11.084;2023-12-14T02:06:49;7.60;99.90
14687;DHT22;7431;49.440;11.084;2023-12-14T02:09:15;6.90;99.90
14687;DHT22;7431;49.440;11.084;2023-12-14T02:11:40;6.90;99.90
14687;DHT22;7431;49.440;11.084;2023-12-14T02:14:06;7.00;99.90
14687;DHT22;7431;49.440;11.084;2023-12-14T02:16:33;7.00;99.90
14687;DHT22;7431;49.440;11.084;2023-12-14T02:18:59;7.00;99.90
14687;DHT22;7431;49.440;11.084;2023-12-14T02:21:24;7.00;99.90
14687;DHT22;7431;49.440;11.084;2023-12-14T02:23:50;7.00;99.90
14687;DHT22;7431;49.440;11.084;2023-12-14T02:26:16;7.00;99.90
14687;DHT22;7431;49.440;11.084;2023-12-14T02:28:41;7.00;99.90
14687;DHT22;7431;49.440;11.084;2023-12-14T02:31:07;7.00;99.90
14687;DHT22;7431;49.440;11.084;2023-12-14T02:33:32;6.90;99.90
14687;DHT22;7431;49.440;11.084;2023-12-14T02:35:59;6.90;99.90
14687;DHT22;7431;49.440;11.084;2023-12-14T02:38:25;6.90;99.90
14687;DHT22;7431;49.440;11.084;2023-12-14T02:40:53;7.00;99.90
14687;DHT22;7431;49.440;11.084;2023-12-14T02:43:19;7.00;99.90
14687;DHT22;7431;49.440;11.084;2023-12-14T02:45:45;6.80;99.90
14687;DHT22;7431;49.440;11.084;2023-12-14T02:48:11;6.80;99.90
14687;DHT22;7431;49.440;11.084;2023-12-14T02:50:37;6.70;99.90
14687;DHT22;7431;49.440;11.084;2023-12-14T02:53:02;6.70;99.90
14687;DHT22;7431;49.440;11.084;2023-12-14T02:55:28;6.70;99.90
14687;DHT22;7431;49.440;11.084;2023-12-14T02:57:54;6.70;99.90
14687;DHT22;7431;49.440;11.084;2023-12-14T03:00:20;6.70;99.90
14687;DHT22;7431;49.440;11.084;2023-12-14T03:02:45;6.70;99.90
14687;DHT22;7431;49.440;11.084;2023-12-14T03:05:11;6.70;99.90
14687;DHT22;7431;49.440;11.084;2023-12-14T03:07:36;6.70;99.90
14687;DHT22;7431;49.440;11.084;2023-12-14T03:10:03;6.80;99.90
14687;DHT22;7431;49.440;11.084;2023-12-14T03:12:29;6.70;99.90
14687;DHT22;7431;49.440;11.084;2023-12-14T03:14:54;6.70;99.90
14687;DHT22;7431;49.440;11.084;2023-12-14T03:17:20;6.70;99.90
14687;DHT22;7431;49.440;11.084;2023-12-14T03:19:45;6.70;99.90
14687;DHT22;7431;49.440;11.084;2023-12-14T03:22:11;6.80;99.90
14687;DHT22;7431;49.440;11.084;2023-12-14T03:24:37;6.80;99.90
14687;DHT22;7431;49.440;11.084;2023-12-14T03:27:03;6.90;99.90
14687;DHT22;7431;49.440;11.084;2023-12-14T03:29:29;6.90;99.90
14687;DHT22;7431;49.440;11.084;2023-12-14T03:31:58;6.90;99.90
14687;DHT22;7431;49.440;11.084;2023-12-14T03:34:24;6.90;99.90
14687;DHT22;7431;49.440;11.084;2023-12-14T03:36:50;6.90;99.90
14687;DHT22;7431;49.440;11.084;2023-12-14T03:39:16;6.90;99.90
14687;DHT22;7431;49.440;11.084;2023-12-14T03:41:42;7.00;99.90
14687;DHT22;7431;49.440;11.084;2023-12-14T03:44:08;7.00;99.90
14687;DHT22;7431;49.440;11.084;2023-12-14T03:46:34;7.00;99.90
14687;DHT22;7431;49.440;11.084;2023-12-14T03:49:00;7.00;99.90
14687;DHT22;7431;49.440;11.084;2023-12-14T03:51:26;7.00;99.90
14687;DHT22;7431;49.440;11.084;2023-12-14T03:53:51;7.00;99.90
14687;DHT22;7431;49.440;11.084;2023-12-14T03:56:17;7.00;99.90
14687;DHT22;7431;49.440;11.084;2023-12-14T03:58:43;7.00;99.90
14687;DHT22;7431;49.440;11.084;2023-12-14T04:01:16;7.00;99.90
14687;DHT22;7431;49.440;11.084;2023-12-14T04:03:41;7.00;99.90
14687;DHT22;7431;49.440;11.084;2023-12-14T04:06:07;7.00;99.90
14687;DHT22;7431;49.440;11.084;2023-12-14T04:08:32;7.00;99.90
14687;DHT22;7431;49.440;11.084;2023-12-14T04:10:58;7.00;99.90
14687;DHT22;7431;49.440;11.084;2023-12-14T04:13:23;6.90;99.90
14687;DHT22;7431;49.440;11.084;2023-12-14T04:15:49;7.00;99.90
14687;DHT22;7431;49.440;11.084;2023-12-14T04:18:15;7.00;99.90
14687;DHT22;7431;49.440;11.084;2023-12-14T04:20:40;7.00;99.90
14687;DHT22;7431;49.440;11.084;2023-12-14T04:23:06;7.00;99.90
14687;DHT22;7431;49.440;11.084;2023-12-14T04:25:31;6.90;99.90
14687;DHT22;7431;49.440;11.084;2023-12-14T04:27:57;6.90;99.90
14687;DHT22;7431;49.440;11.084;2023-12-14T04:30:22;6.90;99.90
14687;DHT22;7431;49.440;11.084;2023-12-14T04:32:48;6.90;99.90
14687;DHT22;7431;49.440;11.084;2023-12-14T04:35:14;6.90;99.90
14687;DHT22;7431;49.440;11.084;2023-12-14T04:37:39;6.90;99.90
14687;DHT22;7431;49.440;11.084;2023-12-14T04:40:05;6.90;99.90
14687;DHT22;7431;49.440;11.084;2023-12-14T04:42:31;6.90;99.90
14687;DHT22;7431;49.440;11.084;2023-12-14T04:44:56;6.90;99.90
14687;DHT22;7431;49.440;11.084;2023-12-14T04:47:22;6.90;99.90
14687;DHT22;7431;49.440;11.084;2023-12-14T04:49:53;6.90;99.90
14687;DHT22;7431;49.440;11.084;2023-12-14T04:52:18;6.90;99.90
14687;DHT22;7431;49.440;11.084;2023-12-14T04:54:44;6.90;99.90
14687;DHT22;7431;49.440;11.084;2023-12-14T04:57:12;6.90;99.90
14687;DHT22;7431;49.440;11.084;2023-12-14T04:59:38;6.90;99.90
14687;DHT22;7431;49.440;11.084;2023-12-14T05:02:06;6.90;99.90
14687;DHT22;7431;49.440;11.084;2023-12-14T05:04:31;6.90;99.90
14687;DHT22;7431;49.440;11.084;2023-12-14T05:06:59;6.80;99.90
14687;DHT22;7431;49.440;11.084;2023-12-14T05:09:27;6.80;99.90
14687;DHT22;7431;49.440;11.084;2023-12-14T05:11:54;6.70;99.90
14687;DHT22;7431;49.440;11.084;2023-12-14T05:14:19;6.70;99.90
14687;DHT22;7431;49.440;11.084;2023-12-14T05:16:45;6.70;99.90
14687;DHT22;7431;49.440;11.084;2023-12-14T05:19:10;6.70;99.90
14687;DHT22;7431;49.440;11.084;2023-12-14T05:21:51;6.70;99.90
14687;DHT22;7431;49.440;11.084;2023-12-14T05:24:22;6.70;99.90
14687;DHT22;7431;49.440;11.084;2023-12-14T05:26:48;6.80;99.90
14687;DHT22;7431;49.440;11.084;2023-12-14T05:29:14;6.70;99.90
14687;DHT22;7431;49.440;11.084;2023-12-14T05:31:39;6.70;99.90
14687;DHT22;7431;49.440;11.084;2023-12-14T05:34:05;6.80;99.90
14687;DHT22;7431;49.440;11.084;2023-12-14T05:36:30;6.80;99.90
14687;DHT22;7431;49.440;11.084;2023-12-14T05:38:56;7.50;99.90
14687;DHT22;7431;49.440;11.084;2023-12-14T05:41:23;6.70;99.90
14687;DHT22;7431;49.440;11.084;2023-12-14T05:43:48;6.60;99.90
14687;DHT22;7431;49.440;11.084;2023-12-14T05:46:23;6.50;99.90
14687;DHT22;7431;49.440;11.084;2023-12-14T05:48:52;6.50;99.90
14687;DHT22;7431;49.440;11.084;2023-12-14T05:51:31;6.60;99.90
14687;DHT22;7431;49.440;11.084;2023-12-14T05:53:57;6.50;99.90
14687;DHT22;7431;49.440;11.084;2023-12-14T05:56:24;6.50;99.90
14687;DHT22;7431;49.440;11.084;2023-12-14T05:58:49;6.50;99.90
14687;DHT22;7431;49.440;11.084;2023-12-14T06:01:20;6.50;99.90
14687;DHT22;7431;49.440;11.084;2023-12-14T06:03:46;6.50;99.90
14687;DHT22;7431;49.440;11.084;2023-12-14T06:06:14;6.80;99.90
14687;DHT22;7431;49.440;11.084;2023-12-14T06:08:40;6.50;99.90
14687;DHT22;7431;49.440;11.084;2023-12-14T06:11:06;6.50;99.90
14687;DHT22;7431;49.440;11.084;2023-12-14T06:13:32;6.50;99.90
14687;DHT22;7431;49.440;11.084;2023-12-14T06:15:58;6.50;99.90
14687;DHT22;7431;49.440;11.084;2023-12-14T06:18:24;6.50;99.90
14687;DHT22;7431;49.440;11.084;2023-12-14T06:20:49;6.50;99.90
14687;DHT22;7431;49.440;11.084;2023-12-14T06:23:15;6.50;99.90
14687;DHT22;7431;49.440;11.084;2023-12-14T06:25:41;6.50;99.90
14687;DHT22;7431;49.440;11.084;2023-12-14T06:28:07;6.50;99.90
14687;DHT22;7431;49.440;11.084;2023-12-14T06:30:35;6.50;99.90
14687;DHT22;7431;49.440;11.084;2023-12-14T06:33:01;6.50;99.90
14687;DHT22;7431;49.440;11.084;2023-12-14T06:35:26;6.50;99.90
14687;DHT22;7431;49.440;11.084;2023-12-14T06:37:52;6.50;99.90
14687;DHT22;7431;49.440;11.084;2023-12-14T06:40:18;6.50;99.90
14687;DHT22;7431;49.440;11.084;2023-12-14T06:42:44;6.50;99.90
14687;DHT22;7431;49.440;11.084;2023-12-14T06:45:10;7.30;99.90
14687;DHT22;7431;49.440;11.084;2023-12-14T06:47:36;6.50;99.90
14687;DHT22;7431;49.440;11.084;2023-12-14T06:50:01;6.50;99.90
14687;DHT22;7431;49.440;11.084;2023-12-14T06:52:33;6.40;99.90
14687;DHT22;7431;49.440;11.084;2023-12-14T06:54:58;6.70;99.90
14687;DHT22;7431;49.440;11.084;2023-12-14T06:57:24;6.40;99.90
14687;DHT22;7431;49.440;11.084;2023-12-14T06:59:50;6.50;99.90
14687;DHT22;7431;49.440;11.084;2023-12-14T07:02:15;6.50;99.90
14687;DHT22;7431;49.440;11.084;2023-12-14T07:04:41;6.60;99.90
14687;DHT22;7431;49.440;11.084;2023-12-14T07:07:06;6.60;99.90
14687;DHT22;7431;49.440;11.084;2023-12-14T07:09:32;6.60;99.90
14687;DHT22;7431;49.440;11.084;2023-12-14T07:11:57;6.70;99.90
14687;DHT22;7431;49.440;11.084;2023-12-14T07:14:24;6.70;99.90
14687;DHT22;7431;49.440;11.084;2023-12-14T07:16:49;6.70;99.90
14687;DHT22;7431;49.440;11.084;2023-12-14T07:19:15;6.70;99.90
14687;DHT22;7431;49.440;11.084;2023-12-14T07:21:40;6.70;99.90
14687;DHT22;7431;49.440;11.084;2023-12-14T07:24:06;6.70;99.90
14687;DHT22;7431;49.440;11.084;2023-12-14T07:26:31;6.70;99.90
14687;DHT22;7431;49.440;11.084;2023-12-14T07:28:57;6.80;99.90
14687;DHT22;7431;49.440;11.084;2023-12-14T07:31:22;7.10;99.90
14687;DHT22;7431;49.440;11.084;2023-12-14T07:33:48;6.80;99.90
14687;DHT22;7431;49.440;11.084;2023-12-14T07:36:14;7.60;99.90
14687;DHT22;7431;49.440;11.084;2023-12-14T07:38:39;6.90;99.90
14687;DHT22;7431;49.440;11.084;2023-12-14T07:41:05;6.90;99.90
14687;DHT22;7431;49.440;11.084;2023-12-14T07:43:30;7.00;99.90
14687;DHT22;7431;49.440;11.084;2023-12-14T07:45:57;6.90;99.90
14687;DHT22;7431;49.440;11.084;2023-12-14T07:48:23;7.00;99.90
14687;DHT22;7431;49.440;11.084;2023-12-14T07:50:49;7.00;99.90
14687;DHT22;7431;49.440;11.084;2023-12-14T07:53:14;7.00;99.90
14687;DHT22;7431;49.440;11.084;2023-12-14T07:55:40;7.00;99.90
14687;DHT22;7431;49.440;11.084;2023-12-14T07:58:05;6.90;99.90
14687;DHT22;7431;49.440;11.084;2023-12-14T08:00:31;6.90;99.90
14687;DHT22;7431;49.440;11.084;2023-12-14T08:02:57;6.90;99.90
14687;DHT22;7431;49.440;11.084;2023-12-14T08:05:22;6.90;99.90
14687;DHT22;7431;49.440;11.084;2023-12-14T08:07:48;7.00;99.90
14687;DHT22;7431;49.440;11.084;2023-12-14T08:10:17;6.90;99.90
14687;DHT22;7431;49.440;11.084;2023-12-14T08:12:43;6.90;99.90
14687;DHT22;7431;49.440;11.084;2023-12-14T08:15:09;7.00;99.90
14687;DHT22;7431;49.440;11.084;2023-12-14T08:17:35;7.00;99.90
14687;DHT22;7431;49.440;11.084;2023-12-14T08:20:00;7.10;99.90
14687;DHT22;7431;49.440;11.084;2023-12-14T08:22:26;7.10;99.90
14687;DHT22;7431;49.440;11.084;2023-12-14T08:24:52;7.10;99.90
14687;DHT22;7431;49.440;11.084;2023-12-14T08:27:17;7.20;99.90
14687;DHT22;7431;49.440;11.084;2023-12-14T08:29:43;7.30;99.90
14687;DHT22;7431;49.440;11.084;2023-12-14T08:32:10;7.40;99.90
14687;DHT22;7431;49.440;11.084;2023-12-14T08:34:36;7.50;99.90
14687;DHT22;7431;49.440;11.084;2023-12-14T08:37:02;7.70;99.90
14687;DHT22;7431;49.440;11.084;2023-12-14T08:39:28;7.70;99.90
14687;DHT22;7431;49.440;11.084;2023-12-14T08:41:53;7.70;99.90
14687;DHT22;7431;49.440;11.084;2023-12-14T08:44:19;7.80;99.90
14687;DHT22;7431;49.440;11.084;2023-12-14T08:46:46;7.80;99.90
14687;DHT22;7431;49.440;11.084;2023-12-14T08:49:12;7.80;99.90
14687;DHT22;7431;49.440;11.084;2023-12-14T08:51:38;7.80;99.90
14687;DHT22;7431;49.440;11.084;2023-12-14T08:54:05;7.70;99.90
14687;DHT22;7431;49.440;11.084;2023-12-14T08:56:30;8.10;99.90
14687;DHT22;7431;49.440;11.084;2023-12-14T08:58:56;7.90;99.90
14687;DHT22;7431;49.440;11.084;2023-12-14T09:01:23;8.20;99.90
14687;DHT22;7431;49.440;11.084;2023-12-14T09:03:49;8.20;99.90
14687;DHT22;7431;49.440;11.084;2023-12-14T09:06:16;8.20;99.90
14687;DHT22;7431;49.440;11.084;2023-12-14T09:08:42;8.00;99.90
14687;DHT22;7431;49.440;11.084;2023-12-14T09:11:08;9.20;99.90
14687;DHT22;7431;49.440;11.084;2023-12-14T09:13:34;7.90;99.90
14687;DHT22;7431;49.440;11.084;2023-12-14T09:15:59;7.90;99.90
14687;DHT22;7431;49.440;11.084;2023-12-14T09:18:25;7.90;99.90
14687;DHT22;7431;49.440;11.084;2023-12-14T09:20:50;8.00;99.90
14687;DHT22;7431;49.440;11.084;2023-12-14T09:23:16;8.00;99.90
14687;DHT22;7431;49.440;11.084;2023-12-14T09:25:42;8.20;99.90
14687;DHT22;7431;49.440;11.084;2023-12-14T09:28:08;8.20;99.90
14687;DHT22;7431;49.440;11.084;2023-12-14T09:30:33;9.10;99.90
14687;DHT22;7431;49.440;11.084;2023-12-14T09:32:59;8.20;99.90
14687;DHT22;7431;49.440;11.084;2023-12-14T09:35:25;8.80;99.90
14687;DHT22;7431;49.440;11.084;2023-12-14T09:37:50;8.20;99.90
14687;DHT22;7431;49.440;11.084;2023-12-14T09:40:16;8.20;99.90
14687;DHT22;7431;49.440;11.084;2023-12-14T09:42:44;8.10;99.90
14687;DHT22;7431;49.440;11.084;2023-12-14T09:45:11;8.10;99.90
14687;DHT22;7431;49.440;11.084;2023-12-14T09:47:37;8.20;99.90
14687;DHT22;7431;49.440;11.084;2023-12-14T09:50:04;8.30;99.90
14687;DHT22;7431;49.440;11.084;2023-12-14T09:52:30;8.40;99.90
14687;DHT22;7431;49.440;11.084;2023-12-14T09:54:56;8.70;99.90
14687;DHT22;7431;49.440;11.084;2023-12-14T09:57:22;8.90;99.90
14687;DHT22;7431;49.440;11.084;2023-12-14T09:59:54;9.00;99.90
14687;DHT22;7431;49.440;11.084;2023-12-14T10:02:27;9.00;99.90
14687;DHT22;7431;49.440;11.084;2023-12-14T10:04:53;9.00;99.90
14687;DHT22;7431;49.440;11.084;2023-12-14T10:07:22;9.00;99.90
14687;DHT22;7431;49.440;11.084;2023-12-14T10:09:50;9.00;99.90
14687;DHT22;7431;49.440;11.084;2023-12-14T10:12:17;9.10;99.90
14687;DHT22;7431;49.440;11.084;2023-12-14T10:14:43;9.20;99.90
14687;DHT22;7431;49.440;11.084;2023-12-14T10:17:18;9.20;99.90
14687;DHT22;7431;49.440;11.084;2023-12-14T10:19:45;9.90;99.90
14687;DHT22;7431;49.440;11.084;2023-12-14T10:22:16;9.20;99.90
14687;DHT22;7431;49.440;11.084;2023-12-14T10:24:49;9.80;99.90
14687;DHT22;7431;49.440;11.084;2023-12-14T10:27:17;9.40;99.90
14687;DHT22;7431;49.440;11.084;2023-12-14T10:29:42;10.30;99.90
14687;DHT22;7431;49.440;11.084;2023-12-14T10:32:11;9.40;99.90
14687;DHT22;7431;49.440;11.084;2023-12-14T10:34:37;9.40;99.90
14687;DHT22;7431;49.440;11.084;2023-12-14T10:37:06;9.50;99.90
14687;DHT22;7431;49.440;11.084;2023-12-14T10:39:35;9.50;99.90
14687;DHT22;7431;49.440;11.084;2023-12-14T10:42:09;9.60;99.90
14687;DHT22;7431;49.440;11.084;2023-12-14T10:44:36;10.40;99.90
14687;DHT22;7431;49.440;11.084;2023-12-14T10:47:03;10.00;99.90
14687;DHT22;7431;49.440;11.084;2023-12-14T10:49:30;10.40;99.90
14687;DHT22;7431;49.440;11.084;2023-12-14T10:51:58;10.50;99.90
14687;DHT22;7431;49.440;11.084;2023-12-14T10:54:25;10.80;99.90
14687;DHT22;7431;49.440;11.084;2023-12-14T10:56:55;10.60;99.90
14687;DHT22;7431;49.440;11.084;2023-12-14T10:59:24;10.40;99.90
14687;DHT22;7431;49.440;11.084;2023-12-14T11:01:54;10.10;99.90
14687;DHT22;7431;49.440;11.084;2023-12-14T11:04:23;9.90;99.90
14687;DHT22;7431;49.440;11.084;2023-12-14T11:06:48;9.70;99.90
14687;DHT22;7431;49.440;11.084;2023-12-14T11:09:17;9.50;99.90
14687;DHT22;7431;49.440;11.084;2023-12-14T11:14:15;9.50;99.90
14687;DHT22;7431;49.440;11.084;2023-12-14T11:16:44;10.90;99.90
14687;DHT22;7431;49.440;11.084;2023-12-14T11:22:33;9.80;99.90
14687;DHT22;7431;49.440;11.084;2023-12-14T11:24:34;9.90;99.90
14687;DHT22;7431;49.440;11.084;2023-12-14T11:27:04;9.90;99.90
14687;DHT22;7431;49.440;11.084;2023-12-14T11:29:30;9.90;99.90
14687;DHT22;7431;49.440;11.084;2023-12-14T11:31:55;9.70;99.90
14687;DHT22;7431;49.440;11.084;2023-12-14T11:34:24;9.60;99.90
14687;DHT22;7431;49.440;11.084;2023-12-14T11:36:50;9.50;99.90
14687;DHT22;7431;49.440;11.084;2023-12-14T11:39:16;9.40;99.90
14687;DHT22;7431;49.440;11.084;2023-12-14T11:41:42;9.30;99.90
14687;DHT22;7431;49.440;11.084;2023-12-14T11:44:07;9.30;99.90
14687;DHT22;7431;49.440;11.084;2023-12-14T11:46:33;9.40;99.90
14687;DHT22;7431;49.440;11.084;2023-12-14T11:48:59;9.50;99.90
14687;DHT22;7431;49.440;11.084;2023-12-14T11:51:28;9.50;99.90
14687;DHT22;7431;49.440;11.084;2023-12-14T11:53:55;9.40;99.90
14687;DHT22;7431;49.440;11.084;2023-12-14T11:56:21;9.30;99.90
14687;DHT22;7431;49.440;11.084;2023-12-14T11:58:49;9.20;99.90
14687;DHT22;7431;49.440;11.084;2023-12-14T12:01:16;9.10;99.90
14687;DHT22;7431;49.440;11.084;2023-12-14T12:03:42;9.10;99.90
14687;DHT22;7431;49.440;11.084;2023-12-14T12:08:48;9.20;99.90
14687;DHT22;7431;49.440;11.084;2023-12-14T12:11:21;9.20;99.90
14687;DHT22;7431;49.440;11.084;2023-12-14T12:13:54;9.30;99.90
14687;DHT22;7431;49.440;11.084;2023-12-14T12:16:20;9.40;99.90
14687;DHT22;7431;49.440;11.084;2023-12-14T12:18:46;10.10;99.90
14687;DHT22;7431;49.440;11.084;2023-12-14T12:21:12;9.50;99.90
14687;DHT22;7431;49.440;11.084;2023-12-14T12:23:38;9.60;99.90
14687;DHT22;7431;49.440;11.084;2023-12-14T12:26:04;9.60;99.90
14687;DHT22;7431;49.440;11.084;2023-12-14T12:28:31;9.60;99.90
14687;DHT22;7431;49.440;11.084;2023-12-14T12:30:57;10.50;99.90
14687;DHT22;7431;49.440;11.084;2023-12-14T12:33:23;10.50;99.90
14687;DHT22;7431;49.440;11.084;2023-12-14T12:35:48;10.50;99.90
14687;DHT22;7431;49.440;11.084;2023-12-14T12:38:14;9.70;99.90
14687;DHT22;7431;49.440;11.084;2023-12-14T12:40:42;9.50;99.90
14687;DHT22;7431;49.440;11.084;2023-12-14T12:43:07;9.40;99.90
14687;DHT22;7431;49.440;11.084;2023-12-14T12:45:33;9.30;99.90
14687;DHT22;7431;49.440;11.084;2023-12-14T12:48:00;9.30;99.90
14687;DHT22;7431;49.440;11.084;2023-12-14T12:50:28;9.20;99.90
14687;DHT22;7431;49.440;11.084;2023-12-14T12:52:54;9.10;99.90
14687;DHT22;7431;49.440;11.084;2023-12-14T12:55:19;9.00;99.90
14687;DHT22;7431;49.440;11.084;2023-12-14T12:57:45;9.20;99.90
14687;DHT22;7431;49.440;11.084;2023-12-14T13:00:12;8.80;99.90
14687;DHT22;7431;49.440;11.084;2023-12-14T13:02:42;8.80;99.90
14687;DHT22;7431;49.440;11.084;2023-12-14T13:05:09;8.70;99.90
14687;DHT22;7431;49.440;11.084;2023-12-14T13:07:35;8.70;99.90
14687;DHT22;7431;49.440;11.084;2023-12-14T13:10:02;8.70;99.90
14687;DHT22;7431;49.440;11.084;2023-12-14T13:12:29;8.60;99.90
14687;DHT22;7431;49.440;11.084;2023-12-14T13:14:55;8.60;99.90
14687;DHT22;7431;49.440;11.084;2023-12-14T13:17:20;8.60;99.90
14687;DHT22;7431;49.440;11.084;2023-12-14T13:19:46;8.60;99.90
14687;DHT22;7431;49.440;11.084;2023-12-14T13:22:11;9.60;99.90
14687;DHT22;7431;49.440;11.084;2023-12-14T13:24:40;8.50;99.90
14687;DHT22;7431;49.440;11.084;2023-12-14T13:27:05;8.50;99.90
14687;DHT22;7431;49.440;11.084;2023-12-14T13:29:32;8.50;99.90
14687;DHT22;7431;49.440;11.084;2023-12-14T13:31:58;8.50;99.90
14687;DHT22;7431;49.440;11.084;2023-12-14T13:34:27;8.50;99.90
14687;DHT22;7431;49.440;11.084;2023-12-14T13:37:01;8.50;99.90
14687;DHT22;7431;49.440;11.084;2023-12-14T13:39:27;8.50;99.90
14687;DHT22;7431;49.440;11.084;2023-12-14T13:41:53;8.40;99.90
14687;DHT22;7431;49.440;11.084;2023-12-14T13:44:22;8.30;99.90
14687;DHT22;7431;49.440;11.084;2023-12-14T13:46:47;8.30;99.90
14687;DHT22;7431;49.440;11.084;2023-12-14T13:49:13;8.20;99.90
14687;DHT22;7431;49.440;11.084;2023-12-14T13:51:39;8.20;99.90
14687;DHT22;7431;49.440;11.084;2023-12-14T13:54:04;8.20;99.90
14687;DHT22;7431;49.440;11.084;2023-12-14T13:56:30;8.20;99.90
14687;DHT22;7431;49.440;11.084;2023-12-14T13:58:55;8.10;99.90
14687;DHT22;7431;49.440;11.084;2023-12-14T14:01:21;8.10;99.90
14687;DHT22;7431;49.440;11.084;2023-12-14T14:03:47;8.00;99.90
14687;DHT22;7431;49.440;11.084;2023-12-14T14:06:13;8.00;99.90
14687;DHT22;7431;49.440;11.084;2023-12-14T14:08:39;7.90;99.90
14687;DHT22;7431;49.440;11.084;2023-12-14T14:11:04;7.90;99.90
14687;DHT22;7431;49.440;11.084;2023-12-14T14:13:31;7.80;99.90
14687;DHT22;7431;49.440;11.084;2023-12-14T14:15:58;7.70;99.90
14687;DHT22;7431;49.440;11.084;2023-12-14T14:18:27;7.80;99.90
14687;DHT22;7431;49.440;11.084;2023-12-14T14:20:58;7.70;99.90
14687;DHT22;7431;49.440;11.084;2023-12-14T14:23:24;7.70;99.90
14687;DHT22;7431;49.440;11.084;2023-12-14T14:25:51;7.70;99.90
14687;DHT22;7431;49.440;11.084;2023-12-14T14:28:21;7.70;99.90
14687;DHT22;7431;49.440;11.084;2023-12-14T14:30:47;7.60;99.90
14687;DHT22;7431;49.440;11.084;2023-12-14T14:33:14;7.60;99.90
14687;DHT22;7431;49.440;11.084;2023-12-14T14:35:46;7.60;99.90
14687;DHT22;7431;49.440;11.084;2023-12-14T14:38:13;7.60;99.90
14687;DHT22;7431;49.440;11.084;2023-12-14T14:40:38;7.50;99.90
14687;DHT22;7431;49.440;11.084;2023-12-14T14:43:04;7.50;99.90
14687;DHT22;7431;49.440;11.084;2023-12-14T14:45:30;7.50;99.90
14687;DHT22;7431;49.440;11.084;2023-12-14T14:47:56;7.50;99.90
14687;DHT22;7431;49.440;11.084;2023-12-14T14:50:21;7.50;99.90
14687;DHT22;7431;49.440;11.084;2023-12-14T14:52:47;7.40;99.90
14687;DHT22;7431;49.440;11.084;2023-12-14T14:55:14;7.50;99.90
14687;DHT22;7431;49.440;11.084;2023-12-14T14:57:40;7.40;99.90
14687;DHT22;7431;49.440;11.084;2023-12-14T15:00:06;7.40;99.90
14687;DHT22;7431;49.440;11.084;2023-12-14T15:02:32;7.40;99.90
14687;DHT22;7431;49.440;11.084;2023-12-14T15:04:57;7.40;99.90
14687;DHT22;7431;49.440;11.084;2023-12-14T15:07:23;7.40;99.90
14687;DHT22;7431;49.440;11.084;2023-12-14T15:09:48;7.40;99.90
14687;DHT22;7431;49.440;11.084;2023-12-14T15:12:14;7.40;99.90
14687;DHT22;7431;49.440;11.084;2023-12-14T15:14:39;7.40;99.90
14687;DHT22;7431;49.440;11.084;2023-12-14T15:17:05;7.40;99.90
14687;DHT22;7431;49.440;11.084;2023-12-14T15:19:31;7.40;99.90
14687;DHT22;7431;49.440;11.084;2023-12-14T15:21:56;7.40;99.90
14687;DHT22;7431;49.440;11.084;2023-12-14T15:24:22;7.40;99.90
14687;DHT22;7431;49.440;11.084;2023-12-14T15:26:48;7.40;99.90
14687;DHT22;7431;49.440;11.084;2023-12-14T15:29:14;7.40;99.90
14687;DHT22;7431;49.440;11.084;2023-12-14T15:31:40;7.40;99.90
14687;DHT22;7431;49.440;11.084;2023-12-14T15:34:06;7.40;99.90
14687;DHT22;7431;49.440;11.084;2023-12-14T15:36:34;7.40;99.90
14687;DHT22;7431;49.440;11.084;2023-12-14T15:39:00;7.40;99.90
14687;DHT22;7431;49.440;11.084;2023-12-14T15:41:26;7.40;99.90
14687;DHT22;7431;49.440;11.084;2023-12-14T15:43:52;7.40;99.90
14687;DHT22;7431;49.440;11.084;2023-12-14T15:46:17;7.50;99.90